createdAt,value
2022-11-20T00:00:00.493Z,14.40
2022-11-20T00:04:03.677Z,12.98
2022-11-20T00:08:09.098Z,13.57
2022-11-20T00:12:12.590Z,12.25
2022-11-20T00:16:16.941Z,13.30
2022-11-20T00:20:25.928Z,13.13
2022-11-20T00:24:31.005Z,12.70
2022-11-20T00:28:34.717Z,12.73
2022-11-20T00:32:37.711Z,10.90
2022-11-20T00:36:41.158Z,13.98
2022-11-20T00:40:45.728Z,12.10
2022-11-20T00:44:48.992Z,12.93
2022-11-20T00:48:52.321Z,12.60
2022-11-20T00:52:55.725Z,12.50
2022-11-20T00:57:00.925Z,12.63
2022-11-20T01:01:05.361Z,10.98
2022-11-20T01:05:09.568Z,12.45
2022-11-20T01:09:15.126Z,13.32
2022-11-20T01:13:45.285Z,11.98
2022-11-20T01:17:48.769Z,11.40
2022-11-20T01:21:54.344Z,11.82
2022-11-20T01:25:57.406Z,12.30
2022-11-20T01:30:02.230Z,11.38
2022-11-20T01:34:09.136Z,11.20
2022-11-20T01:38:12.658Z,11.80
2022-11-20T01:42:33.761Z,13.98
2022-11-20T01:46:40.802Z,13.30
2022-11-20T01:50:44.887Z,11.52
2022-11-20T01:54:53.294Z,12.80
2022-11-20T01:59:01.024Z,11.77
2022-11-20T02:03:09.999Z,12.43
2022-11-20T02:07:14.392Z,13.00
2022-11-20T02:11:17.449Z,13.25
2022-11-20T02:15:24.055Z,12.45
2022-11-20T02:19:33.073Z,11.82
2022-11-20T02:23:41.970Z,11.48
2022-11-20T02:27:46.863Z,12.25
2022-11-20T02:31:50.356Z,12.18
2022-11-20T02:35:53.454Z,12.52
2022-11-20T02:39:56.968Z,12.80
2022-11-20T02:44:02.178Z,11.30
2022-11-20T02:48:05.474Z,13.25
2022-11-20T02:52:09.208Z,12.30
2022-11-20T02:56:13.534Z,12.63
2022-11-20T03:00:18.696Z,13.23
2022-11-20T03:04:22.217Z,15.27
2022-11-20T03:08:25.804Z,15.98
2022-11-20T03:12:28.837Z,13.25
2022-11-20T03:16:34.537Z,13.85
2022-11-20T03:20:37.715Z,12.40
2022-11-20T03:24:41.242Z,11.02
2022-11-20T03:28:48.874Z,13.40
2022-11-20T03:32:56.310Z,11.70
2022-11-20T03:36:59.972Z,14.10
2022-11-20T03:41:04.812Z,12.00
2022-11-20T03:45:08.584Z,12.73
2022-11-20T03:49:13.518Z,13.55
2022-11-20T03:53:17.675Z,13.45
2022-11-20T03:57:20.672Z,13.20
2022-11-20T04:01:26.212Z,17.45
2022-11-20T04:05:31.628Z,13.85
2022-11-20T04:09:34.897Z,14.15
2022-11-20T04:13:39.024Z,15.40
2022-11-20T04:17:42.543Z,13.80
2022-11-20T04:21:47.440Z,14.68
2022-11-20T04:25:50.941Z,14.85
2022-11-20T04:29:54.518Z,13.27
2022-11-20T04:33:58.204Z,15.57
2022-11-20T04:38:03.241Z,13.57
2022-11-20T04:42:24.493Z,14.02
2022-11-20T04:46:29.003Z,14.48
2022-11-20T04:50:32.725Z,14.25
2022-11-20T04:54:37.661Z,12.13
2022-11-20T04:58:41.359Z,14.23
2022-11-20T05:02:44.847Z,12.55
2022-11-20T05:06:48.460Z,12.65
2022-11-20T05:10:53.240Z,14.27
2022-11-20T05:14:56.808Z,13.68
2022-11-20T05:18:59.932Z,14.38
2022-11-20T05:23:03.435Z,13.32
2022-11-20T05:27:08.508Z,14.45
2022-11-20T05:31:14.292Z,13.35
2022-11-20T05:35:17.986Z,15.15
2022-11-20T05:39:21.816Z,14.48
2022-11-20T05:43:26.596Z,15.10
2022-11-20T05:47:33.676Z,11.75
2022-11-20T05:51:36.732Z,13.82
2022-11-20T05:55:40.245Z,14.98
2022-11-20T05:59:45.540Z,13.25
2022-11-20T06:03:49.093Z,14.85
2022-11-20T06:07:52.626Z,14.68
2022-11-20T06:11:56.114Z,14.25
2022-11-20T06:16:00.606Z,14.00
2022-11-20T06:20:04.411Z,15.52
2022-11-20T06:24:08.606Z,13.95
2022-11-20T06:28:12.320Z,14.25
2022-11-20T06:32:16.998Z,12.00
2022-11-20T06:36:24.841Z,12.50
2022-11-20T06:40:28.436Z,14.10
2022-11-20T06:44:32.254Z,13.55
2022-11-20T06:48:37.087Z,13.23
2022-11-20T06:52:43.667Z,12.63
2022-11-20T06:56:49.432Z,12.95
2022-11-20T07:00:52.915Z,15.50
2022-11-20T07:04:57.428Z,14.13
2022-11-20T07:09:00.914Z,12.18
2022-11-20T07:13:03.988Z,12.88
2022-11-20T07:17:07.027Z,15.00
2022-11-20T07:21:13.151Z,12.00
2022-11-20T07:25:16.661Z,14.13
2022-11-20T07:29:20.553Z,13.23
2022-11-20T07:33:24.427Z,14.25
2022-11-20T07:37:29.132Z,12.32
2022-11-20T07:41:32.785Z,13.70
2022-11-20T07:45:37.382Z,17.40
2022-11-20T07:49:40.915Z,25.08
2022-11-20T07:53:45.286Z,21.02
2022-11-20T07:57:48.829Z,15.02
2022-11-20T08:01:52.646Z,13.25
2022-11-20T08:05:56.259Z,12.45
2022-11-20T08:10:01.065Z,12.77
2022-11-20T08:14:15.401Z,13.77
2022-11-20T08:18:35.410Z,12.82
2022-11-20T08:22:38.935Z,14.52
2022-11-20T08:26:44.124Z,14.85
2022-11-20T08:30:47.239Z,12.25
2022-11-20T08:34:50.724Z,14.68
2022-11-20T08:38:56.283Z,12.70
2022-11-20T08:43:02.374Z,13.40
2022-11-20T08:47:05.548Z,13.68
2022-11-20T08:51:09.073Z,14.55
2022-11-20T08:55:13.401Z,13.70
2022-11-20T08:59:43.495Z,14.48
2022-11-20T09:03:43.283Z,14.40
2022-11-20T09:07:46.754Z,13.23
2022-11-20T09:11:51.081Z,11.80
2022-11-20T09:16:00.945Z,15.02
2022-11-20T09:20:05.702Z,13.30
2022-11-20T09:24:09.288Z,14.77
2022-11-20T09:28:12.421Z,16.60
2022-11-20T09:32:17.670Z,11.90
2022-11-20T09:36:20.834Z,12.45
2022-11-20T09:40:25.905Z,11.68
2022-11-20T09:44:43.131Z,13.27
2022-11-20T09:49:10.095Z,12.13
2022-11-20T09:53:23.241Z,13.15
2022-11-20T09:57:33.090Z,16.08
2022-11-20T10:01:42.603Z,16.15
2022-11-20T10:05:50.064Z,13.27
2022-11-20T10:09:56.882Z,15.75
2022-11-20T10:14:10.485Z,16.10
2022-11-20T10:18:31.887Z,14.82
2022-11-20T10:22:50.647Z,12.95
2022-11-20T10:27:06.034Z,12.10
2022-11-20T10:31:23.776Z,11.95
2022-11-20T10:35:35.054Z,11.40
2022-11-20T10:39:45.075Z,11.85
2022-11-20T10:43:49.778Z,11.02
2022-11-20T10:47:53.365Z,11.18
2022-11-20T10:52:08.544Z,8.80
2022-11-20T10:56:21.258Z,7.15
2022-11-20T11:00:25.094Z,10.18
2022-11-20T11:04:39.064Z,10.60
2022-11-20T11:08:42.752Z,9.48
2022-11-20T11:12:49.177Z,9.43
2022-11-20T11:16:54.716Z,9.80
2022-11-20T11:20:59.015Z,9.85
2022-11-20T11:25:02.535Z,12.70
2022-11-20T11:29:07.780Z,11.63
2022-11-20T11:33:14.290Z,11.60
2022-11-20T11:37:23.126Z,15.05
2022-11-20T11:41:33.197Z,12.68
2022-11-20T11:45:39.428Z,14.15
2022-11-20T11:49:43.071Z,11.93
2022-11-20T11:53:47.032Z,12.30
2022-11-20T11:57:55.722Z,11.32
2022-11-20T12:02:06.267Z,11.52
2022-11-20T12:06:16.204Z,10.93
2022-11-20T12:10:25.165Z,10.35
2022-11-20T12:14:35.856Z,12.82
2022-11-20T12:18:42.670Z,11.75
2022-11-20T12:22:54.765Z,11.50
2022-11-20T12:27:16.100Z,10.80
2022-11-20T12:31:40.647Z,12.90
2022-11-20T12:36:07.341Z,12.15
2022-11-20T12:40:30.088Z,13.98
2022-11-20T12:45:09.008Z,14.57
2022-11-20T12:49:28.338Z,12.38
2022-11-20T12:53:41.957Z,13.63
2022-11-20T12:57:54.572Z,13.95
2022-11-20T13:02:06.757Z,13.35
2022-11-20T13:06:16.882Z,15.88
2022-11-20T13:10:31.245Z,13.75
2022-11-20T13:14:40.255Z,14.02
2022-11-20T13:18:47.665Z,14.30
2022-11-20T13:22:53.452Z,14.60
2022-11-20T13:27:21.766Z,14.50
2022-11-20T13:31:33.262Z,13.57
2022-11-20T13:35:38.104Z,15.30
2022-11-20T13:39:41.541Z,12.32
2022-11-20T13:43:47.544Z,14.55
2022-11-20T13:47:51.903Z,15.93
2022-11-20T13:52:04.454Z,14.77
2022-11-20T13:56:16.312Z,15.15
2022-11-20T14:00:23.254Z,13.98
2022-11-20T14:04:32.173Z,21.52
2022-11-20T14:08:41.150Z,15.38
2022-11-20T14:12:44.274Z,14.93
2022-11-20T14:16:51.002Z,12.68
2022-11-20T14:20:54.658Z,15.32
2022-11-20T14:25:08.566Z,14.65
2022-11-20T14:29:15.266Z,16.05
2022-11-20T14:33:21.061Z,15.70
2022-11-20T14:37:29.439Z,16.23
2022-11-20T14:41:33.828Z,14.63
2022-11-20T14:45:37.563Z,16.77
2022-11-20T14:49:43.487Z,15.27
2022-11-20T14:53:47.053Z,14.15
2022-11-20T14:57:58.238Z,11.80
2022-11-20T15:02:03.678Z,13.85
2022-11-20T15:06:09.944Z,15.25
2022-11-20T15:10:16.862Z,14.27
2022-11-20T15:14:20.005Z,16.05
2022-11-20T15:18:26.018Z,14.73
2022-11-20T15:22:30.955Z,13.15
2022-11-20T15:26:35.447Z,14.02
2022-11-20T15:30:38.539Z,13.75
2022-11-20T15:34:42.297Z,15.00
2022-11-20T15:38:46.910Z,16.23
2022-11-20T15:53:38.847Z,17.23
2022-11-20T15:57:43.647Z,17.42
2022-11-20T16:01:46.905Z,16.77
2022-11-20T16:05:50.638Z,13.30
2022-11-20T16:09:53.738Z,9.98
2022-11-20T16:14:16.125Z,5.75
2022-11-20T16:18:21.196Z,4.20
2022-11-20T16:22:25.017Z,3.95
2022-11-20T16:26:28.110Z,2.90
2022-11-20T16:30:36.814Z,1.80
2022-11-20T16:34:40.257Z,1.10
2022-11-20T16:38:44.679Z,0.90
2022-11-20T16:42:47.784Z,0.60
2022-11-20T16:46:52.726Z,0.63
2022-11-20T16:50:56.603Z,0.52
2022-11-20T16:54:59.938Z,0.40
2022-11-20T16:59:04.444Z,0.30
2022-11-20T17:03:09.667Z,0.47
2022-11-20T17:07:13.310Z,0.93
2022-11-20T17:11:18.849Z,0.30
2022-11-20T17:15:21.971Z,0.43
2022-11-20T17:19:27.100Z,0.65
2022-11-20T17:23:30.657Z,1.42
2022-11-20T17:27:33.988Z,0.90
2022-11-20T17:31:40.182Z,0.60
2022-11-20T17:35:47.697Z,0.55
2022-11-20T17:39:50.916Z,1.13
2022-11-20T17:43:56.388Z,0.35
2022-11-20T17:48:00.102Z,0.60
2022-11-20T17:52:05.594Z,0.80
2022-11-20T17:56:27.341Z,0.50
2022-11-20T18:00:32.376Z,0.63
2022-11-20T18:04:35.873Z,0.45
2022-11-20T18:08:41.718Z,0.43
2022-11-20T18:12:45.154Z,0.60
2022-11-20T18:16:50.545Z,0.45
2022-11-20T18:20:56.391Z,0.70
2022-11-20T18:25:02.057Z,0.77
2022-11-20T18:29:07.457Z,0.70
2022-11-20T18:33:11.448Z,0.68
2022-11-20T18:37:17.393Z,0.75
2022-11-20T18:41:41.278Z,1.05
2022-11-20T18:45:45.290Z,1.10
2022-11-20T18:49:52.864Z,1.23
2022-11-20T18:53:56.167Z,1.08
2022-11-20T18:58:00.757Z,0.73
2022-11-20T19:02:04.632Z,0.90
2022-11-20T19:06:08.470Z,0.85
2022-11-20T19:10:11.875Z,0.90
2022-11-20T19:14:17.486Z,0.90
2022-11-20T19:18:22.129Z,0.73
2022-11-20T19:22:25.219Z,0.60
2022-11-20T19:26:29.153Z,0.70
2022-11-20T19:30:35.058Z,0.68
2022-11-20T19:34:38.298Z,0.85
2022-11-20T19:38:47.676Z,0.82
2022-11-20T19:42:51.675Z,0.85
2022-11-20T19:46:57.336Z,0.63
2022-11-20T19:51:04.951Z,0.57
2022-11-20T19:55:08.271Z,0.88
2022-11-20T19:59:11.968Z,0.50
2022-11-20T20:03:21.813Z,0.57
2022-11-20T20:07:24.977Z,0.57
2022-11-20T20:11:30.473Z,0.90
2022-11-20T20:15:34.232Z,0.68
2022-11-20T20:19:39.127Z,1.00
2022-11-20T20:23:43.819Z,1.08
2022-11-20T20:27:47.275Z,0.82
2022-11-20T20:31:50.277Z,0.60
2022-11-20T20:35:55.135Z,0.85
2022-11-20T20:39:59.103Z,1.25
2022-11-20T20:44:20.030Z,0.93
2022-11-20T20:48:26.152Z,0.77
2022-11-20T20:52:34.458Z,0.93
2022-11-20T20:56:38.253Z,1.17
2022-11-20T21:00:41.548Z,0.77
2022-11-20T21:04:45.162Z,0.93
2022-11-20T21:08:51.136Z,0.60
2022-11-20T21:12:57.097Z,0.77
2022-11-20T21:17:03.320Z,0.70
2022-11-20T21:21:25.153Z,1.05
2022-11-20T21:25:30.361Z,0.98
2022-11-20T21:29:33.385Z,0.95
2022-11-20T21:33:40.974Z,0.70
2022-11-20T21:37:44.533Z,1.30
2022-11-20T21:41:49.763Z,0.82
2022-11-20T21:45:53.243Z,0.80
2022-11-20T21:49:56.856Z,0.60
2022-11-20T21:54:03.238Z,0.40
2022-11-20T21:58:08.157Z,0.68
2022-11-20T22:02:13.205Z,0.68
2022-11-20T22:06:16.891Z,0.60
2022-11-20T22:10:20.343Z,1.25
2022-11-20T22:14:25.653Z,0.45
2022-11-20T22:18:29.910Z,0.65
2022-11-20T22:22:33.615Z,0.65
2022-11-20T22:26:40.461Z,0.50
2022-11-20T22:30:45.617Z,0.68
2022-11-20T22:34:49.465Z,0.60
2022-11-20T22:38:52.818Z,0.55
2022-11-20T22:42:56.722Z,0.75
2022-11-20T22:47:01.875Z,0.57
2022-11-20T22:51:06.638Z,0.98
2022-11-20T22:55:15.051Z,1.20
2022-11-20T22:59:19.880Z,0.60
2022-11-20T23:03:24.449Z,0.73
2022-11-20T23:07:28.083Z,0.60
2022-11-20T23:11:33.196Z,0.80
2022-11-20T23:15:37.526Z,0.63
2022-11-20T23:19:41.934Z,0.70
2022-11-20T23:23:49.205Z,0.70
2022-11-20T23:27:52.334Z,0.77
2022-11-20T23:31:55.489Z,0.68
2022-11-20T23:36:00.359Z,0.88
2022-11-20T23:40:04.909Z,0.60
2022-11-20T23:44:08.470Z,0.80
2022-11-20T23:48:12.243Z,0.73
2022-11-20T23:52:17.152Z,0.63
2022-11-20T23:56:20.716Z,0.90
